Abaiara, Brazil
Current Conditions -  °F | °C
As of 9:00 PM on Wednesday 28 Jan 2015 (Local Time) from SBJU Reporting Station
Few Clouds Few Clouds  
Wind Chill: 86°   Ceiling: Unl
Heat Index: 86°   Visibility: 6mi
Dew Point: 57°   Wind: 2mph
Humidity: 37%   Direction: 120°ESE
Pressure: 29.94"   Gusts: NA
Location:  7.36°S, 39.05°W
Report Text: SBJU 290000Z 12002KT 9999 FEW022 30/14 Q1014
Loading
Personal Weather Stations






























Interactive Weather Map New forecast layout! Learn more

10-Day Weather Forecast

Advertisements
Track Severe Weather on mobile